sensor_id;sensor_type;location;lat;lon;timestamp;pressure;altitude;pressure_sealevel;temperature;humidity
68822;BME280;55834;50.870;4.606;2023-03-04T00:00:52;102006.22;;;2.25;52.58
68822;BME280;55834;50.870;4.606;2023-03-04T00:03:18;102006.81;;;2.83;51.55
68822;BME280;55834;50.870;4.606;2023-03-04T00:05:43;102008.19;;;2.34;51.06
68822;BME280;55834;50.870;4.606;2023-03-04T00:08:09;102013.34;;;1.39;53.76
68822;BME280;55834;50.870;4.606;2023-03-04T00:10:34;102005.56;;;2.67;50.89
68822;BME280;55834;50.870;4.606;2023-03-04T00:13:00;102001.88;;;2.59;50.71
68822;BME280;55834;50.870;4.606;2023-03-04T00:15:25;102006.31;;;1.65;52.77
68822;BME280;55834;50.870;4.606;2023-03-04T00:17:50;102007.41;;;2.71;50.67
68822;BME280;55834;50.870;4.606;2023-03-04T00:20:16;102012.44;;;2.31;51.33
68822;BME280;55834;50.870;4.606;2023-03-04T00:22:41;102003.97;;;2.74;50.17
68822;BME280;55834;50.870;4.606;2023-03-04T00:25:06;102004.38;;;2.55;50.61
68822;BME280;55834;50.870;4.606;2023-03-04T00:27:32;102003.06;;;1.72;53.27
68822;BME280;55834;50.870;4.606;2023-03-04T00:29:57;102010.03;;;1.14;54.76
68822;BME280;55834;50.870;4.606;2023-03-04T00:32:24;102000.47;;;2.04;53.14
68822;BME280;55834;50.870;4.606;2023-03-04T00:34:49;102001.19;;;2.66;50.86
68822;BME280;55834;50.870;4.606;2023-03-04T00:37:14;101997.00;;;3.49;49.51
68822;BME280;55834;50.870;4.606;2023-03-04T00:39:40;101995.34;;;3.52;48.54
68822;BME280;55834;50.870;4.606;2023-03-04T00:42:05;101992.22;;;3.28;49.00
68822;BME280;55834;50.870;4.606;2023-03-04T00:44:31;101992.44;;;3.38;47.89
68822;BME280;55834;50.870;4.606;2023-03-04T00:46:56;101997.75;;;3.43;48.20
68822;BME280;55834;50.870;4.606;2023-03-04T00:49:21;101996.28;;;3.56;48.97
68822;BME280;55834;50.870;4.606;2023-03-04T00:51:47;102003.53;;;3.69;48.43
68822;BME280;55834;50.870;4.606;2023-03-04T00:54:12;101996.72;;;3.77;47.95
68822;BME280;55834;50.870;4.606;2023-03-04T00:56:37;102002.09;;;3.43;48.84
68822;BME280;55834;50.870;4.606;2023-03-04T00:59:03;102000.28;;;3.82;48.13
68822;BME280;55834;50.870;4.606;2023-03-04T01:01:28;101997.88;;;3.93;48.24
68822;BME280;55834;50.870;4.606;2023-03-04T01:03:54;102009.78;;;2.29;51.75
68822;BME280;55834;50.870;4.606;2023-03-04T01:06:19;102001.59;;;3.60;49.21
68822;BME280;55834;50.870;4.606;2023-03-04T01:08:44;102000.72;;;4.04;47.74
68822;BME280;55834;50.870;4.606;2023-03-04T01:11:10;102004.34;;;3.67;47.97
68822;BME280;55834;50.870;4.606;2023-03-04T01:13:35;102005.78;;;2.77;50.74
68822;BME280;55834;50.870;4.606;2023-03-04T01:16:00;102003.88;;;3.07;50.94
68822;BME280;55834;50.870;4.606;2023-03-04T01:18:28;102001.22;;;3.42;49.90
68822;BME280;55834;50.870;4.606;2023-03-04T01:20:53;102011.34;;;2.92;50.87
68822;BME280;55834;50.870;4.606;2023-03-04T01:23:18;102001.78;;;2.91;51.12
68822;BME280;55834;50.870;4.606;2023-03-04T01:25:44;102002.00;;;3.80;49.23
68822;BME280;55834;50.870;4.606;2023-03-04T01:28:09;101998.38;;;4.18;48.14
68822;BME280;55834;50.870;4.606;2023-03-04T01:30:35;101987.31;;;4.34;46.86
68822;BME280;55834;50.870;4.606;2023-03-04T01:33:00;101986.69;;;4.49;46.74
68822;BME280;55834;50.870;4.606;2023-03-04T01:35:26;101986.50;;;3.90;48.42
68822;BME280;55834;50.870;4.606;2023-03-04T01:37:52;101971.34;;;4.19;47.20
68822;BME280;55834;50.870;4.606;2023-03-04T01:40:17;101987.59;;;4.01;47.47
68822;BME280;55834;50.870;4.606;2023-03-04T01:42:43;101984.69;;;3.85;48.10
68822;BME280;55834;50.870;4.606;2023-03-04T01:45:15;101989.13;;;3.91;48.20
68822;BME280;55834;50.870;4.606;2023-03-04T01:47:43;101973.97;;;3.72;48.65
68822;BME280;55834;50.870;4.606;2023-03-04T01:50:18;101975.66;;;4.17;48.17
68822;BME280;55834;50.870;4.606;2023-03-04T01:52:44;101956.88;;;4.38;48.07
68822;BME280;55834;50.870;4.606;2023-03-04T01:55:15;101951.13;;;4.60;46.29
68822;BME280;55834;50.870;4.606;2023-03-04T01:57:40;101956.16;;;4.48;46.36
68822;BME280;55834;50.870;4.606;2023-03-04T02:02:59;101945.69;;;4.46;46.80
68822;BME280;55834;50.870;4.606;2023-03-04T02:05:25;101936.25;;;4.58;47.16
68822;BME280;55834;50.870;4.606;2023-03-04T02:07:53;101940.91;;;4.21;47.08
68822;BME280;55834;50.870;4.606;2023-03-04T02:10:20;101936.97;;;4.47;46.53
68822;BME280;55834;50.870;4.606;2023-03-04T02:12:46;101932.06;;;4.69;46.61
68822;BME280;55834;50.870;4.606;2023-03-04T02:15:11;101933.31;;;4.35;46.81
68822;BME280;55834;50.870;4.606;2023-03-04T02:17:37;101922.16;;;4.46;46.89
68822;BME280;55834;50.870;4.606;2023-03-04T02:20:17;101930.47;;;3.30;49.33
68822;BME280;55834;50.870;4.606;2023-03-04T02:22:56;101932.28;;;3.78;49.06
68822;BME280;55834;50.870;4.606;2023-03-04T02:25:30;101928.56;;;4.14;48.61
68822;BME280;55834;50.870;4.606;2023-03-04T02:27:57;101909.97;;;4.48;47.93
68822;BME280;55834;50.870;4.606;2023-03-04T02:30:23;101921.00;;;4.29;46.75
68822;BME280;55834;50.870;4.606;2023-03-04T02:32:50;101910.06;;;4.53;47.57
68822;BME280;55834;50.870;4.606;2023-03-04T02:35:17;101910.75;;;4.43;48.14
68822;BME280;55834;50.870;4.606;2023-03-04T02:37:43;101907.69;;;4.70;47.62
68822;BME280;55834;50.870;4.606;2023-03-04T02:40:14;101901.75;;;4.82;46.69
68822;BME280;55834;50.870;4.606;2023-03-04T02:42:43;101902.69;;;4.87;46.05
68822;BME280;55834;50.870;4.606;2023-03-04T02:45:35;101902.75;;;4.90;46.22
68822;BME280;55834;50.870;4.606;2023-03-04T02:48:02;101895.22;;;4.53;46.39
68822;BME280;55834;50.870;4.606;2023-03-04T02:50:32;101897.41;;;3.74;48.71
68822;BME280;55834;50.870;4.606;2023-03-04T02:52:58;101900.84;;;3.72;49.54
68822;BME280;55834;50.870;4.606;2023-03-04T02:55:23;101896.38;;;3.68;50.23
68822;BME280;55834;50.870;4.606;2023-03-04T02:57:49;101899.91;;;3.70;49.85
68822;BME280;55834;50.870;4.606;2023-03-04T03:00:14;101897.91;;;3.56;49.96
68822;BME280;55834;50.870;4.606;2023-03-04T03:02:40;101899.06;;;3.27;50.29
68822;BME280;55834;50.870;4.606;2023-03-04T03:05:06;101892.59;;;3.99;48.83
68822;BME280;55834;50.870;4.606;2023-03-04T03:07:32;101885.38;;;4.37;47.87
68822;BME280;55834;50.870;4.606;2023-03-04T03:09:59;101884.91;;;4.61;47.38
68822;BME280;55834;50.870;4.606;2023-03-04T03:12:24;101889.16;;;4.56;46.38
68822;BME280;55834;50.870;4.606;2023-03-04T03:14:50;101888.47;;;4.68;47.49
68822;BME280;55834;50.870;4.606;2023-03-04T03:17:15;101888.78;;;4.30;48.04
68822;BME280;55834;50.870;4.606;2023-03-04T03:19:40;101897.03;;;4.03;48.36
68822;BME280;55834;50.870;4.606;2023-03-04T03:22:06;101902.59;;;3.73;48.37
68822;BME280;55834;50.870;4.606;2023-03-04T03:24:31;101898.16;;;3.23;50.72
68822;BME280;55834;50.870;4.606;2023-03-04T03:26:56;101897.56;;;3.36;50.28
68822;BME280;55834;50.870;4.606;2023-03-04T03:29:22;101897.44;;;3.32;51.46
68822;BME280;55834;50.870;4.606;2023-03-04T03:31:47;101906.44;;;3.46;51.11
68822;BME280;55834;50.870;4.606;2023-03-04T03:34:12;101889.06;;;3.97;49.81
68822;BME280;55834;50.870;4.606;2023-03-04T03:36:38;101892.31;;;4.34;49.02
68822;BME280;55834;50.870;4.606;2023-03-04T03:39:04;101886.13;;;4.28;48.81
68822;BME280;55834;50.870;4.606;2023-03-04T03:41:31;101890.38;;;4.22;48.35
68822;BME280;55834;50.870;4.606;2023-03-04T03:43:56;101900.69;;;3.64;50.86
68822;BME280;55834;50.870;4.606;2023-03-04T03:46:22;101895.63;;;3.72;50.33
68822;BME280;55834;50.870;4.606;2023-03-04T03:48:47;101899.13;;;3.30;51.52
68822;BME280;55834;50.870;4.606;2023-03-04T03:51:12;101902.94;;;2.65;53.19
68822;BME280;55834;50.870;4.606;2023-03-04T03:53:38;101898.84;;;2.77;53.47
68822;BME280;55834;50.870;4.606;2023-03-04T03:56:03;101892.53;;;3.47;51.93
68822;BME280;55834;50.870;4.606;2023-03-04T03:58:29;101897.63;;;3.87;50.66
68822;BME280;55834;50.870;4.606;2023-03-04T04:01:00;101900.88;;;3.28;50.59
68822;BME280;55834;50.870;4.606;2023-03-04T04:03:26;101905.69;;;3.52;51.23
68822;BME280;55834;50.870;4.606;2023-03-04T04:05:51;101913.06;;;3.74;50.11
68822;BME280;55834;50.870;4.606;2023-03-04T04:08:17;101903.28;;;4.13;49.56
68822;BME280;55834;50.870;4.606;2023-03-04T04:10:42;101915.88;;;3.39;50.25
68822;BME280;55834;50.870;4.606;2023-03-04T04:13:08;101900.84;;;4.22;48.99
68822;BME280;55834;50.870;4.606;2023-03-04T04:15:34;101900.59;;;4.08;48.68
68822;BME280;55834;50.870;4.606;2023-03-04T04:18:00;101901.97;;;3.88;48.83
68822;BME280;55834;50.870;4.606;2023-03-04T04:20:26;101907.69;;;4.15;48.66
68822;BME280;55834;50.870;4.606;2023-03-04T04:22:51;101913.53;;;3.53;50.18
68822;BME280;55834;50.870;4.606;2023-03-04T04:25:16;101905.53;;;3.44;50.88
68822;BME280;55834;50.870;4.606;2023-03-04T04:27:42;101902.97;;;3.47;50.24
68822;BME280;55834;50.870;4.606;2023-03-04T04:30:07;101904.28;;;2.48;52.81
68822;BME280;55834;50.870;4.606;2023-03-04T04:32:33;101908.84;;;1.55;55.97
68822;BME280;55834;50.870;4.606;2023-03-04T04:34:58;101903.88;;;2.31;54.21
68822;BME280;55834;50.870;4.606;2023-03-04T04:37:24;101894.06;;;2.57;52.93
68822;BME280;55834;50.870;4.606;2023-03-04T04:39:49;101893.13;;;2.55;52.54
68822;BME280;55834;50.870;4.606;2023-03-04T04:42:17;101897.19;;;2.42;54.31
68822;BME280;55834;50.870;4.606;2023-03-04T04:44:42;101900.41;;;2.68;52.12
68822;BME280;55834;50.870;4.606;2023-03-04T04:47:08;101903.53;;;2.54;54.33
68822;BME280;55834;50.870;4.606;2023-03-04T04:49:34;101902.69;;;2.18;54.75
68822;BME280;55834;50.870;4.606;2023-03-04T04:51:59;101902.03;;;3.04;52.55
68822;BME280;55834;50.870;4.606;2023-03-04T04:54:24;101904.72;;;3.07;51.67
68822;BME280;55834;50.870;4.606;2023-03-04T04:56:50;101909.16;;;2.70;53.57
68822;BME280;55834;50.870;4.606;2023-03-04T04:59:15;101920.22;;;1.91;54.98
68822;BME280;55834;50.870;4.606;2023-03-04T05:01:40;101913.84;;;2.47;54.10
68822;BME280;55834;50.870;4.606;2023-03-04T05:04:06;101914.00;;;2.55;53.89
68822;BME280;55834;50.870;4.606;2023-03-04T05:06:31;101910.72;;;3.43;52.03
68822;BME280;55834;50.870;4.606;2023-03-04T05:08:57;101913.47;;;3.08;53.09
68822;BME280;55834;50.870;4.606;2023-03-04T05:11:22;101913.03;;;3.73;52.11
68822;BME280;55834;50.870;4.606;2023-03-04T05:13:47;101904.84;;;4.01;50.98
68822;BME280;55834;50.870;4.606;2023-03-04T05:16:14;101908.66;;;4.20;49.54
68822;BME280;55834;50.870;4.606;2023-03-04T05:18:39;101915.34;;;3.15;52.07
68822;BME280;55834;50.870;4.606;2023-03-04T05:21:05;101915.63;;;2.88;52.67
68822;BME280;55834;50.870;4.606;2023-03-04T05:23:33;101921.72;;;2.88;52.37
68822;BME280;55834;50.870;4.606;2023-03-04T05:25:59;101911.81;;;3.13;52.58
68822;BME280;55834;50.870;4.606;2023-03-04T05:28:25;101911.81;;;3.54;51.18
68822;BME280;55834;50.870;4.606;2023-03-04T05:30:50;101913.47;;;2.32;54.27
68822;BME280;55834;50.870;4.606;2023-03-04T05:33:16;101905.56;;;3.06;53.72
68822;BME280;55834;50.870;4.606;2023-03-04T05:35:43;101902.66;;;3.32;51.49
68822;BME280;55834;50.870;4.606;2023-03-04T05:38:12;101898.75;;;3.54;52.38
68822;BME280;55834;50.870;4.606;2023-03-04T05:40:38;101895.47;;;4.13;50.60
68822;BME280;55834;50.870;4.606;2023-03-04T05:43:03;101904.16;;;4.13;49.95
68822;BME280;55834;50.870;4.606;2023-03-04T05:45:29;101899.47;;;4.45;50.03
68822;BME280;55834;50.870;4.606;2023-03-04T05:47:54;101894.91;;;4.32;48.78
68822;BME280;55834;50.870;4.606;2023-03-04T05:50:21;101901.94;;;4.35;48.75
68822;BME280;55834;50.870;4.606;2023-03-04T05:52:47;101914.81;;;3.75;50.56
68822;BME280;55834;50.870;4.606;2023-03-04T05:55:13;101901.97;;;4.39;48.98
68822;BME280;55834;50.870;4.606;2023-03-04T05:57:39;101907.66;;;4.14;49.13
68822;BME280;55834;50.870;4.606;2023-03-04T06:00:05;101901.84;;;4.31;49.41
68822;BME280;55834;50.870;4.606;2023-03-04T06:02:34;101900.38;;;4.47;49.41
68822;BME280;55834;50.870;4.606;2023-03-04T06:04:59;101898.72;;;4.54;48.69
68822;BME280;55834;50.870;4.606;2023-03-04T06:07:25;101907.44;;;3.53;50.50
68822;BME280;55834;50.870;4.606;2023-03-04T06:09:50;101908.38;;;4.05;49.62
68822;BME280;55834;50.870;4.606;2023-03-04T06:12:15;101899.22;;;4.31;49.27
68822;BME280;55834;50.870;4.606;2023-03-04T06:14:41;101914.63;;;4.12;50.43
68822;BME280;55834;50.870;4.606;2023-03-04T06:17:06;101916.97;;;4.51;49.20
68822;BME280;55834;50.870;4.606;2023-03-04T06:19:32;101913.88;;;4.76;48.31
68822;BME280;55834;50.870;4.606;2023-03-04T06:21:58;101913.81;;;4.72;48.64
68822;BME280;55834;50.870;4.606;2023-03-04T06:24:23;101914.94;;;4.89;48.93
68822;BME280;55834;50.870;4.606;2023-03-04T06:26:49;101920.31;;;4.98;47.79
68822;BME280;55834;50.870;4.606;2023-03-04T06:29:15;101920.31;;;5.00;48.16
68822;BME280;55834;50.870;4.606;2023-03-04T06:31:40;101926.56;;;5.08;48.03
68822;BME280;55834;50.870;4.606;2023-03-04T06:34:09;101922.25;;;5.12;48.12
68822;BME280;55834;50.870;4.606;2023-03-04T06:36:34;101923.19;;;5.17;47.98
68822;BME280;55834;50.870;4.606;2023-03-04T06:39:04;101930.94;;;5.09;47.83
68822;BME280;55834;50.870;4.606;2023-03-04T06:41:30;101932.59;;;5.06;47.87
68822;BME280;55834;50.870;4.606;2023-03-04T06:43:56;101936.31;;;5.20;47.92
68822;BME280;55834;50.870;4.606;2023-03-04T06:46:21;101935.47;;;4.63;48.01
68822;BME280;55834;50.870;4.606;2023-03-04T06:48:48;101933.69;;;4.59;50.02
68822;BME280;55834;50.870;4.606;2023-03-04T06:51:13;101941.78;;;4.76;49.04
68822;BME280;55834;50.870;4.606;2023-03-04T06:53:39;101940.13;;;4.81;48.33
68822;BME280;55834;50.870;4.606;2023-03-04T06:56:06;101942.94;;;4.40;48.64
68822;BME280;55834;50.870;4.606;2023-03-04T06:58:32;101948.75;;;4.22;50.10
68822;BME280;55834;50.870;4.606;2023-03-04T07:01:21;101947.13;;;4.27;50.39
68822;BME280;55834;50.870;4.606;2023-03-04T07:03:48;101953.44;;;4.42;49.44
68822;BME280;55834;50.870;4.606;2023-03-04T07:06:15;101948.31;;;4.46;49.31
68822;BME280;55834;50.870;4.606;2023-03-04T07:08:42;101947.28;;;3.88;51.00
68822;BME280;55834;50.870;4.606;2023-03-04T07:11:07;101967.94;;;2.94;52.04
68822;BME280;55834;50.870;4.606;2023-03-04T07:13:33;101957.56;;;2.24;56.02
68822;BME280;55834;50.870;4.606;2023-03-04T07:16:03;101962.31;;;1.43;56.83
68822;BME280;55834;50.870;4.606;2023-03-04T07:18:29;101960.81;;;2.50;54.50
68822;BME280;55834;50.870;4.606;2023-03-04T07:20:54;101957.59;;;2.99;52.78
68822;BME280;55834;50.870;4.606;2023-03-04T07:23:20;101969.59;;;3.28;52.32
68822;BME280;55834;50.870;4.606;2023-03-04T07:25:45;101958.69;;;2.70;53.16
68822;BME280;55834;50.870;4.606;2023-03-04T07:28:11;101966.03;;;1.52;58.05
68822;BME280;55834;50.870;4.606;2023-03-04T07:30:36;101962.44;;;2.45;55.46
68822;BME280;55834;50.870;4.606;2023-03-04T07:33:02;101966.75;;;2.81;53.74
68822;BME280;55834;50.870;4.606;2023-03-04T07:35:27;101974.59;;;2.12;55.72
68822;BME280;55834;50.870;4.606;2023-03-04T07:37:53;101964.59;;;2.62;54.58
68822;BME280;55834;50.870;4.606;2023-03-04T07:40:19;101980.41;;;2.35;55.06
68822;BME280;55834;50.870;4.606;2023-03-04T07:42:51;101976.75;;;2.28;56.06
68822;BME280;55834;50.870;4.606;2023-03-04T07:45:40;101980.66;;;2.44;55.55
68822;BME280;55834;50.870;4.606;2023-03-04T07:48:08;101975.69;;;2.20;57.22
68822;BME280;55834;50.870;4.606;2023-03-04T07:50:33;101976.44;;;2.85;54.63
68822;BME280;55834;50.870;4.606;2023-03-04T07:52:58;101976.50;;;2.88;54.65
68822;BME280;55834;50.870;4.606;2023-03-04T07:55:24;101971.63;;;3.04;54.87
68822;BME280;55834;50.870;4.606;2023-03-04T07:57:49;101982.91;;;3.40;52.70
68822;BME280;55834;50.870;4.606;2023-03-04T08:00:15;101985.13;;;2.86;55.18
68822;BME280;55834;50.870;4.606;2023-03-04T08:02:42;101988.50;;;3.59;52.51
68822;BME280;55834;50.870;4.606;2023-03-04T08:05:08;101989.81;;;2.99;54.05
68822;BME280;55834;50.870;4.606;2023-03-04T08:07:33;101983.66;;;2.97;54.82
68822;BME280;55834;50.870;4.606;2023-03-04T08:09:59;101999.84;;;2.82;55.43
68822;BME280;55834;50.870;4.606;2023-03-04T08:12:25;101999.69;;;3.53;52.78
68822;BME280;55834;50.870;4.606;2023-03-04T08:14:51;101999.59;;;3.09;54.20
68822;BME280;55834;50.870;4.606;2023-03-04T08:17:16;101999.06;;;3.23;54.00
68822;BME280;55834;50.870;4.606;2023-03-04T08:19:42;102015.16;;;2.68;55.66
68822;BME280;55834;50.870;4.606;2023-03-04T08:22:07;102011.19;;;3.60;53.06
68822;BME280;55834;50.870;4.606;2023-03-04T08:24:33;102015.25;;;3.91;52.47
68822;BME280;55834;50.870;4.606;2023-03-04T08:26:59;102007.13;;;3.74;52.68
68822;BME280;55834;50.870;4.606;2023-03-04T08:29:24;102015.78;;;3.73;53.08
68822;BME280;55834;50.870;4.606;2023-03-04T08:31:51;102018.44;;;3.75;51.91
68822;BME280;55834;50.870;4.606;2023-03-04T08:34:19;102022.31;;;1.77;57.24
68822;BME280;55834;50.870;4.606;2023-03-04T08:36:44;102018.41;;;3.32;53.37
68822;BME280;55834;50.870;4.606;2023-03-04T08:39:14;102021.47;;;2.43;56.41
68822;BME280;55834;50.870;4.606;2023-03-04T08:41:40;102019.38;;;2.30;55.69
68822;BME280;55834;50.870;4.606;2023-03-04T08:44:05;102019.69;;;3.13;54.62
68822;BME280;55834;50.870;4.606;2023-03-04T08:46:32;102023.13;;;2.08;57.63
68822;BME280;55834;50.870;4.606;2023-03-04T08:48:58;102022.66;;;2.91;56.04
68822;BME280;55834;50.870;4.606;2023-03-04T08:51:23;102016.09;;;3.08;55.58
68822;BME280;55834;50.870;4.606;2023-03-04T08:53:50;102021.16;;;2.31;56.50
68822;BME280;55834;50.870;4.606;2023-03-04T08:56:16;102005.66;;;3.46;54.91
68822;BME280;55834;50.870;4.606;2023-03-04T08:58:41;102010.94;;;3.49;55.95
68822;BME280;55834;50.870;4.606;2023-03-04T09:01:11;102016.06;;;3.87;53.36
68822;BME280;55834;50.870;4.606;2023-03-04T09:03:38;102010.94;;;3.92;54.47
68822;BME280;55834;50.870;4.606;2023-03-04T09:06:07;102011.13;;;3.57;53.93
68822;BME280;55834;50.870;4.606;2023-03-04T09:08:34;102023.91;;;2.72;57.05
68822;BME280;55834;50.870;4.606;2023-03-04T09:11:00;102018.44;;;2.98;57.44
68822;BME280;55834;50.870;4.606;2023-03-04T09:13:28;102009.19;;;3.10;57.17
68822;BME280;55834;50.870;4.606;2023-03-04T09:15:57;102018.38;;;2.58;61.04
68822;BME280;55834;50.870;4.606;2023-03-04T09:18:23;102020.19;;;2.97;58.65
68822;BME280;55834;50.870;4.606;2023-03-04T09:20:49;102025.19;;;2.53;60.62
68822;BME280;55834;50.870;4.606;2023-03-04T09:23:15;102027.47;;;1.46;65.87
68822;BME280;55834;50.870;4.606;2023-03-04T09:25:42;102026.22;;;1.06;66.28
68822;BME280;55834;50.870;4.606;2023-03-04T09:28:09;102023.75;;;2.64;61.82
68822;BME280;55834;50.870;4.606;2023-03-04T09:30:35;102014.38;;;3.09;60.05
68822;BME280;55834;50.870;4.606;2023-03-04T09:33:00;102020.06;;;2.92;60.27
68822;BME280;55834;50.870;4.606;2023-03-04T09:35:26;102016.16;;;3.49;59.27
68822;BME280;55834;50.870;4.606;2023-03-04T09:37:54;102017.78;;;2.35;63.94
68822;BME280;55834;50.870;4.606;2023-03-04T09:40:22;102008.28;;;3.48;61.82
68822;BME280;55834;50.870;4.606;2023-03-04T09:42:54;102010.25;;;4.02;59.70
68822;BME280;55834;50.870;4.606;2023-03-04T09:45:22;102011.38;;;4.15;58.76
68822;BME280;55834;50.870;4.606;2023-03-04T09:47:51;102006.28;;;4.74;57.96
68822;BME280;55834;50.870;4.606;2023-03-04T09:50:18;102006.97;;;5.17;56.39
68822;BME280;55834;50.870;4.606;2023-03-04T09:55:18;102004.31;;;4.11;57.38
68822;BME280;55834;50.870;4.606;2023-03-04T09:57:50;101999.25;;;4.18;57.66
68822;BME280;55834;50.870;4.606;2023-03-04T10:00:29;102002.16;;;2.70;62.26
68822;BME280;55834;50.870;4.606;2023-03-04T10:03:16;101998.53;;;3.01;61.83
68822;BME280;55834;50.870;4.606;2023-03-04T10:05:53;102001.38;;;3.50;58.79
68822;BME280;55834;50.870;4.606;2023-03-04T10:11:10;102014.91;;;1.93;65.94
68822;BME280;55834;50.870;4.606;2023-03-04T10:16:19;102002.72;;;2.93;60.96
68822;BME280;55834;50.870;4.606;2023-03-04T10:21:42;102010.00;;;1.72;65.46
68822;BME280;55834;50.870;4.606;2023-03-04T10:24:16;101997.50;;;3.32;61.58
68822;BME280;55834;50.870;4.606;2023-03-04T10:26:47;102002.44;;;2.82;63.07
68822;BME280;55834;50.870;4.606;2023-03-04T10:29:16;102001.81;;;2.56;63.43
68822;BME280;55834;50.870;4.606;2023-03-04T10:31:43;101996.50;;;2.88;63.54
68822;BME280;55834;50.870;4.606;2023-03-04T10:34:11;102008.94;;;1.97;63.08
68822;BME280;55834;50.870;4.606;2023-03-04T10:39:30;101999.47;;;2.67;62.49
68822;BME280;55834;50.870;4.606;2023-03-04T10:42:00;102005.28;;;2.22;64.12
68822;BME280;55834;50.870;4.606;2023-03-04T10:44:26;101989.75;;;2.98;61.59
68822;BME280;55834;50.870;4.606;2023-03-04T10:46:55;102000.38;;;2.34;63.54
68822;BME280;55834;50.870;4.606;2023-03-04T10:49:20;101992.78;;;3.54;58.99
68822;BME280;55834;50.870;4.606;2023-03-04T10:51:47;102001.44;;;3.95;59.23
68822;BME280;55834;50.870;4.606;2023-03-04T10:54:19;101989.75;;;4.25;59.37
68822;BME280;55834;50.870;4.606;2023-03-04T10:57:04;101989.56;;;4.64;56.15
68822;BME280;55834;50.870;4.606;2023-03-04T10:59:43;101994.47;;;3.53;59.35
68822;BME280;55834;50.870;4.606;2023-03-04T11:02:26;101987.50;;;4.99;56.08
68822;BME280;55834;50.870;4.606;2023-03-04T11:07:54;101986.69;;;5.05;54.01
68822;BME280;55834;50.870;4.606;2023-03-04T11:10:39;101992.88;;;4.05;56.48
68822;BME280;55834;50.870;4.606;2023-03-04T11:13:16;101984.38;;;4.17;56.77
68822;BME280;55834;50.870;4.606;2023-03-04T11:16:03;101980.63;;;3.16;59.25
68822;BME280;55834;50.870;4.606;2023-03-04T11:21:17;101980.88;;;2.53;60.46
68822;BME280;55834;50.870;4.606;2023-03-04T11:24:20;101972.19;;;3.69;56.97
68822;BME280;55834;50.870;4.606;2023-03-04T11:26:45;101970.06;;;3.12;58.90
68822;BME280;55834;50.870;4.606;2023-03-04T11:32:09;101949.00;;;4.35;56.20
68822;BME280;55834;50.870;4.606;2023-03-04T11:34:59;101947.16;;;4.30;54.11
68822;BME280;55834;50.870;4.606;2023-03-04T11:38:07;101963.78;;;3.85;54.57
68822;BME280;55834;50.870;4.606;2023-03-04T11:40:54;101943.31;;;4.10;54.49
68822;BME280;55834;50.870;4.606;2023-03-04T11:43:29;101938.72;;;5.06;52.62
68822;BME280;55834;50.870;4.606;2023-03-04T12:00:18;101914.28;;;4.45;51.51
68822;BME280;55834;50.870;4.606;2023-03-04T12:03:16;101896.84;;;5.81;50.44
68822;BME280;55834;50.870;4.606;2023-03-04T12:16:55;101904.94;;;5.23;52.17
68822;BME280;55834;50.870;4.606;2023-03-04T12:19:51;101892.66;;;5.17;52.92
68822;BME280;55834;50.870;4.606;2023-03-04T12:22:32;101890.56;;;4.95;53.50
68822;BME280;55834;50.870;4.606;2023-03-04T12:39:32;101886.03;;;5.50;52.30
68822;BME280;55834;50.870;4.606;2023-03-04T12:45:16;101876.28;;;5.34;52.17
68822;BME280;55834;50.870;4.606;2023-03-04T12:50:43;101868.47;;;5.41;52.31
68822;BME280;55834;50.870;4.606;2023-03-04T12:53:20;101864.41;;;5.68;51.96
68822;BME280;55834;50.870;4.606;2023-03-04T12:55:51;101866.06;;;5.60;51.77
68822;BME280;55834;50.870;4.606;2023-03-04T12:58:28;101872.31;;;4.99;54.35
68822;BME280;55834;50.870;4.606;2023-03-04T13:01:26;101862.91;;;5.95;51.05
68822;BME280;55834;50.870;4.606;2023-03-04T13:11:50;101851.75;;;6.22;49.32
68822;BME280;55834;50.870;4.606;2023-03-04T13:16:53;101849.22;;;5.33;52.50
68822;BME280;55834;50.870;4.606;2023-03-04T13:19:48;101848.38;;;5.37;52.37
68822;BME280;55834;50.870;4.606;2023-03-04T13:24:55;101835.88;;;5.15;53.08
68822;BME280;55834;50.870;4.606;2023-03-04T13:51:18;101812.25;;;5.94;51.37
68822;BME280;55834;50.870;4.606;2023-03-04T13:56:35;101810.50;;;5.98;52.01
68822;BME280;55834;50.870;4.606;2023-03-04T14:01:32;101813.81;;;4.93;53.99
68822;BME280;55834;50.870;4.606;2023-03-04T14:03:58;101800.91;;;5.97;53.14
68822;BME280;55834;50.870;4.606;2023-03-04T14:08:51;101806.38;;;6.29;51.83
68822;BME280;55834;50.870;4.606;2023-03-04T14:11:25;101805.56;;;6.42;50.81
68822;BME280;55834;50.870;4.606;2023-03-04T14:13:56;101804.59;;;5.26;54.53
68822;BME280;55834;50.870;4.606;2023-03-04T14:16:26;101798.22;;;5.89;53.84
68822;BME280;55834;50.870;4.606;2023-03-04T14:19:04;101795.13;;;6.50;51.56
68822;BME280;55834;50.870;4.606;2023-03-04T14:21:34;101796.94;;;6.63;50.52
68822;BME280;55834;50.870;4.606;2023-03-04T14:24:07;101793.28;;;6.35;50.74
68822;BME280;55834;50.870;4.606;2023-03-04T14:26:35;101785.41;;;6.33;52.79
68822;BME280;55834;50.870;4.606;2023-03-04T14:29:01;101786.56;;;6.86;51.54
68822;BME280;55834;50.870;4.606;2023-03-04T14:31:29;101789.75;;;6.30;50.95
68822;BME280;55834;50.870;4.606;2023-03-04T14:33:59;101787.63;;;5.77;52.71
68822;BME280;55834;50.870;4.606;2023-03-04T14:36:32;101782.53;;;5.98;53.32
68822;BME280;55834;50.870;4.606;2023-03-04T14:39:02;101782.13;;;6.67;52.27
68822;BME280;55834;50.870;4.606;2023-03-04T14:41:36;101775.25;;;7.01;51.13
68822;BME280;55834;50.870;4.606;2023-03-04T14:46:59;101774.06;;;6.38;52.71
68822;BME280;55834;50.870;4.606;2023-03-04T14:49:29;101771.66;;;6.77;51.19
68822;BME280;55834;50.870;4.606;2023-03-04T14:51:55;101757.75;;;7.05;51.18
68822;BME280;55834;50.870;4.606;2023-03-04T14:57:00;101759.78;;;5.88;54.59
68822;BME280;55834;50.870;4.606;2023-03-04T15:05:45;101752.19;;;6.32;53.37
68822;BME280;55834;50.870;4.606;2023-03-04T15:08:27;101754.53;;;5.88;54.53
68822;BME280;55834;50.870;4.606;2023-03-04T15:10:58;101749.66;;;6.57;52.82
68822;BME280;55834;50.870;4.606;2023-03-04T15:13:44;101746.31;;;6.86;52.57